sensor_id;sensor_type;location;lat;lon;timestamp;pressure;altitude;pressure_sealevel;temperature;humidity
54994;BME280;40891;47.242;8.648;2022-11-20T00:02:15;95999.53;;;6.99;97.75
54994;BME280;40891;47.242;8.648;2022-11-20T00:04:40;96006.38;;;6.95;97.17
54994;BME280;40891;47.242;8.648;2022-11-20T00:07:05;95998.09;;;6.95;97.65
54994;BME280;40891;47.242;8.648;2022-11-20T00:09:31;96000.94;;;6.91;98.29
54994;BME280;40891;47.242;8.648;2022-11-20T00:11:56;96009.34;;;6.88;97.66
54994;BME280;40891;47.242;8.648;2022-11-20T00:14:21;96006.59;;;6.88;97.75
54994;BME280;40891;47.242;8.648;2022-11-20T00:16:47;96017.31;;;6.85;98.61
54994;BME280;40891;47.242;8.648;2022-11-20T00:19:12;96012.56;;;6.86;97.40
54994;BME280;40891;47.242;8.648;2022-11-20T00:21:37;96018.09;;;6.86;98.26
54994;BME280;40891;47.242;8.648;2022-11-20T00:24:03;96013.84;;;6.81;98.44
54994;BME280;40891;47.242;8.648;2022-11-20T00:26:28;96015.06;;;6.80;98.38
54994;BME280;40891;47.242;8.648;2022-11-20T00:28:57;96019.72;;;6.83;98.10
54994;BME280;40891;47.242;8.648;2022-11-20T00:31:23;96020.94;;;6.82;97.54
54994;BME280;40891;47.242;8.648;2022-11-20T00:33:49;96019.81;;;6.80;97.77
54994;BME280;40891;47.242;8.648;2022-11-20T00:36:17;96021.38;;;6.81;97.40
54994;BME280;40891;47.242;8.648;2022-11-20T00:38:43;96020.34;;;6.75;97.97
54994;BME280;40891;47.242;8.648;2022-11-20T00:41:11;96024.75;;;6.72;98.77
54994;BME280;40891;47.242;8.648;2022-11-20T00:43:38;96024.75;;;6.72;98.58
54994;BME280;40891;47.242;8.648;2022-11-20T00:46:15;96021.19;;;6.88;96.40
54994;BME280;40891;47.242;8.648;2022-11-20T00:48:41;96029.34;;;6.79;98.24
54994;BME280;40891;47.242;8.648;2022-11-20T00:51:07;96021.91;;;6.76;99.03
54994;BME280;40891;47.242;8.648;2022-11-20T00:53:32;96022.97;;;6.95;96.65
54994;BME280;40891;47.242;8.648;2022-11-20T00:56:02;96025.94;;;6.88;97.44
54994;BME280;40891;47.242;8.648;2022-11-20T00:58:30;96029.94;;;6.99;98.44
54994;BME280;40891;47.242;8.648;2022-11-20T01:01:13;96032.09;;;6.79;98.82
54994;BME280;40891;47.242;8.648;2022-11-20T01:03:41;96033.38;;;6.74;99.37
54994;BME280;40891;47.242;8.648;2022-11-20T01:06:11;96038.03;;;6.77;99.30
54994;BME280;40891;47.242;8.648;2022-11-20T01:08:37;96035.81;;;6.72;99.24
54994;BME280;40891;47.242;8.648;2022-11-20T01:11:07;96022.91;;;6.82;98.78
54994;BME280;40891;47.242;8.648;2022-11-20T01:13:33;96028.22;;;6.76;99.40
54994;BME280;40891;47.242;8.648;2022-11-20T01:16:14;96034.16;;;6.75;99.62
54994;BME280;40891;47.242;8.648;2022-11-20T01:18:42;96033.97;;;6.82;100.00
54994;BME280;40891;47.242;8.648;2022-11-20T01:21:11;96033.19;;;6.81;100.00
54994;BME280;40891;47.242;8.648;2022-11-20T01:23:38;96029.13;;;6.86;100.00
54994;BME280;40891;47.242;8.648;2022-11-20T01:26:06;96035.09;;;6.84;100.00
54994;BME280;40891;47.242;8.648;2022-11-20T01:28:32;96034.22;;;6.88;100.00
54994;BME280;40891;47.242;8.648;2022-11-20T01:30:58;96042.38;;;6.91;100.00
54994;BME280;40891;47.242;8.648;2022-11-20T01:33:24;96035.66;;;6.92;100.00
54994;BME280;40891;47.242;8.648;2022-11-20T01:35:49;96038.09;;;6.90;100.00
54994;BME280;40891;47.242;8.648;2022-11-20T01:38:15;96038.88;;;6.91;98.66
54994;BME280;40891;47.242;8.648;2022-11-20T01:40:41;96041.44;;;6.98;97.83
54994;BME280;40891;47.242;8.648;2022-11-20T01:43:20;96042.78;;;7.06;96.02
54994;BME280;40891;47.242;8.648;2022-11-20T01:46:14;96045.31;;;7.00;96.39
54994;BME280;40891;47.242;8.648;2022-11-20T01:48:45;96044.63;;;6.96;96.41
54994;BME280;40891;47.242;8.648;2022-11-20T01:51:59;96046.53;;;6.99;96.84
54994;BME280;40891;47.242;8.648;2022-11-20T01:54:09;96042.63;;;6.97;96.28
54994;BME280;40891;47.242;8.648;2022-11-20T01:56:38;96052.81;;;7.00;95.12
54994;BME280;40891;47.242;8.648;2022-11-20T01:59:07;96041.84;;;6.96;95.00
54994;BME280;40891;47.242;8.648;2022-11-20T02:01:33;96045.22;;;7.04;94.92
54994;BME280;40891;47.242;8.648;2022-11-20T02:03:59;96042.31;;;6.95;95.06
54994;BME280;40891;47.242;8.648;2022-11-20T02:06:29;96042.09;;;7.02;94.25
54994;BME280;40891;47.242;8.648;2022-11-20T02:08:56;96047.38;;;6.96;92.45
54994;BME280;40891;47.242;8.648;2022-11-20T02:11:21;96037.97;;;6.94;93.34
54994;BME280;40891;47.242;8.648;2022-11-20T02:13:47;96036.00;;;6.94;94.95
54994;BME280;40891;47.242;8.648;2022-11-20T02:18:48;96043.09;;;6.95;94.93
54994;BME280;40891;47.242;8.648;2022-11-20T02:21:24;96035.91;;;6.98;96.59
54994;BME280;40891;47.242;8.648;2022-11-20T02:26:36;96040.41;;;6.92;97.35
54994;BME280;40891;47.242;8.648;2022-11-20T02:29:03;96043.16;;;6.92;97.00
54994;BME280;40891;47.242;8.648;2022-11-20T02:31:29;96041.53;;;6.94;96.90
54994;BME280;40891;47.242;8.648;2022-11-20T02:33:58;96045.16;;;6.91;95.70
54994;BME280;40891;47.242;8.648;2022-11-20T02:36:26;96044.03;;;6.88;95.29
54994;BME280;40891;47.242;8.648;2022-11-20T02:38:52;96045.59;;;6.90;95.33
54994;BME280;40891;47.242;8.648;2022-11-20T02:41:18;96050.69;;;6.91;95.60
54994;BME280;40891;47.242;8.648;2022-11-20T02:43:43;96046.47;;;6.86;95.59
54994;BME280;40891;47.242;8.648;2022-11-20T02:46:09;96047.25;;;6.87;94.77
54994;BME280;40891;47.242;8.648;2022-11-20T02:48:35;96044.22;;;6.81;95.56
54994;BME280;40891;47.242;8.648;2022-11-20T02:51:00;96044.22;;;6.81;95.58
54994;BME280;40891;47.242;8.648;2022-11-20T02:53:26;96043.91;;;6.79;96.08
54994;BME280;40891;47.242;8.648;2022-11-20T02:55:51;96041.13;;;6.79;94.75
54994;BME280;40891;47.242;8.648;2022-11-20T02:58:17;96042.91;;;6.73;95.15
54994;BME280;40891;47.242;8.648;2022-11-20T03:00:42;96042.03;;;6.76;95.28
54994;BME280;40891;47.242;8.648;2022-11-20T03:03:08;96045.31;;;6.71;95.56
54994;BME280;40891;47.242;8.648;2022-11-20T03:05:33;96033.56;;;6.67;96.06
54994;BME280;40891;47.242;8.648;2022-11-20T03:07:58;96043.16;;;6.63;96.26
54994;BME280;40891;47.242;8.648;2022-11-20T03:10:24;96042.59;;;6.55;97.03
54994;BME280;40891;47.242;8.648;2022-11-20T03:12:55;96041.91;;;6.51;97.25
54994;BME280;40891;47.242;8.648;2022-11-20T03:15:22;96038.47;;;6.47;97.91
54994;BME280;40891;47.242;8.648;2022-11-20T03:17:48;96044.50;;;6.42;97.96
54994;BME280;40891;47.242;8.648;2022-11-20T03:20:13;96045.38;;;6.39;98.48
54994;BME280;40891;47.242;8.648;2022-11-20T03:22:38;96037.09;;;6.39;98.27
54994;BME280;40891;47.242;8.648;2022-11-20T03:25:04;96047.44;;;6.35;98.48
54994;BME280;40891;47.242;8.648;2022-11-20T03:27:34;96042.03;;;6.32;98.87
54994;BME280;40891;47.242;8.648;2022-11-20T03:29:59;96037.25;;;6.32;99.65
54994;BME280;40891;47.242;8.648;2022-11-20T03:32:25;96042.13;;;6.28;99.84
54994;BME280;40891;47.242;8.648;2022-11-20T03:34:50;96047.13;;;6.33;100.00
54994;BME280;40891;47.242;8.648;2022-11-20T03:37:15;96048.06;;;6.27;100.00
54994;BME280;40891;47.242;8.648;2022-11-20T03:39:41;96048.16;;;6.23;100.00
54994;BME280;40891;47.242;8.648;2022-11-20T03:42:06;96048.31;;;6.16;100.00
54994;BME280;40891;47.242;8.648;2022-11-20T03:44:51;96058.75;;;6.08;100.00
54994;BME280;40891;47.242;8.648;2022-11-20T03:47:16;96053.00;;;6.19;100.00
54994;BME280;40891;47.242;8.648;2022-11-20T03:49:42;96051.44;;;6.02;100.00
54994;BME280;40891;47.242;8.648;2022-11-20T03:52:07;96056.63;;;6.00;100.00
54994;BME280;40891;47.242;8.648;2022-11-20T03:54:32;96058.06;;;6.21;100.00
54994;BME280;40891;47.242;8.648;2022-11-20T03:56:58;96056.63;;;6.00;100.00
54994;BME280;40891;47.242;8.648;2022-11-20T03:59:23;96061.78;;;5.98;100.00
54994;BME280;40891;47.242;8.648;2022-11-20T04:01:48;96063.78;;;5.97;100.00
54994;BME280;40891;47.242;8.648;2022-11-20T04:04:14;96059.97;;;5.91;100.00
54994;BME280;40891;47.242;8.648;2022-11-20T04:06:39;96061.84;;;6.10;100.00
54994;BME280;40891;47.242;8.648;2022-11-20T04:09:05;96069.91;;;6.05;100.00
54994;BME280;40891;47.242;8.648;2022-11-20T04:11:33;96061.09;;;5.94;100.00
54994;BME280;40891;47.242;8.648;2022-11-20T04:14:01;96063.78;;;5.97;100.00
54994;BME280;40891;47.242;8.648;2022-11-20T04:16:32;96062.97;;;5.97;100.00
54994;BME280;40891;47.242;8.648;2022-11-20T04:19:01;96062.97;;;5.97;100.00
54994;BME280;40891;47.242;8.648;2022-11-20T04:21:27;96056.28;;;5.98;100.00
54994;BME280;40891;47.242;8.648;2022-11-20T04:23:53;96063.50;;;5.92;100.00
54994;BME280;40891;47.242;8.648;2022-11-20T04:26:20;96062.66;;;5.95;100.00
54994;BME280;40891;47.242;8.648;2022-11-20T04:28:45;96052.22;;;6.18;100.00
54994;BME280;40891;47.242;8.648;2022-11-20T04:31:20;96061.78;;;6.14;99.81
54994;BME280;40891;47.242;8.648;2022-11-20T04:33:45;96071.63;;;6.15;98.41
54994;BME280;40891;47.242;8.648;2022-11-20T04:36:18;96071.19;;;6.16;99.32
54994;BME280;40891;47.242;8.648;2022-11-20T04:38:45;96070.34;;;6.20;100.00
54994;BME280;40891;47.242;8.648;2022-11-20T04:41:21;96070.41;;;6.16;100.00
54994;BME280;40891;47.242;8.648;2022-11-20T04:43:48;96075.69;;;6.27;99.37
54994;BME280;40891;47.242;8.648;2022-11-20T04:46:14;96073.34;;;6.25;100.00
54994;BME280;40891;47.242;8.648;2022-11-20T04:48:40;96068.69;;;6.38;99.35
54994;BME280;40891;47.242;8.648;2022-11-20T04:51:05;96066.25;;;6.40;97.06
54994;BME280;40891;47.242;8.648;2022-11-20T04:53:31;96059.97;;;6.24;99.62
54994;BME280;40891;47.242;8.648;2022-11-20T04:56:07;96062.13;;;6.16;100.00
54994;BME280;40891;47.242;8.648;2022-11-20T04:58:34;96066.97;;;6.28;97.52
54994;BME280;40891;47.242;8.648;2022-11-20T05:01:11;96052.13;;;6.38;98.83
54994;BME280;40891;47.242;8.648;2022-11-20T05:03:37;96064.09;;;6.48;92.72
54994;BME280;40891;47.242;8.648;2022-11-20T05:06:04;96066.75;;;6.51;98.47
54994;BME280;40891;47.242;8.648;2022-11-20T05:08:31;96063.41;;;6.28;98.68
54994;BME280;40891;47.242;8.648;2022-11-20T05:11:06;96062.28;;;6.25;95.25
54994;BME280;40891;47.242;8.648;2022-11-20T05:13:31;96066.69;;;6.23;94.39
54994;BME280;40891;47.242;8.648;2022-11-20T05:16:05;96066.88;;;6.32;95.58
54994;BME280;40891;47.242;8.648;2022-11-20T05:18:31;96065.94;;;6.22;95.96
54994;BME280;40891;47.242;8.648;2022-11-20T05:20:58;96065.06;;;6.25;94.22
54994;BME280;40891;47.242;8.648;2022-11-20T05:23:24;96069.03;;;6.24;95.23
54994;BME280;40891;47.242;8.648;2022-11-20T05:25:52;96078.50;;;6.23;95.78
54994;BME280;40891;47.242;8.648;2022-11-20T05:28:18;96075.91;;;6.32;96.14
54994;BME280;40891;47.242;8.648;2022-11-20T05:30:43;96072.22;;;6.23;96.83
54994;BME280;40891;47.242;8.648;2022-11-20T05:33:08;96078.69;;;6.16;98.09
54994;BME280;40891;47.242;8.648;2022-11-20T05:35:34;96073.69;;;6.11;99.73
54994;BME280;40891;47.242;8.648;2022-11-20T05:37:59;96079.03;;;6.02;100.00
54994;BME280;40891;47.242;8.648;2022-11-20T05:40:24;96074.19;;;5.90;100.00
54994;BME280;40891;47.242;8.648;2022-11-20T05:42:50;96079.66;;;5.74;100.00
54994;BME280;40891;47.242;8.648;2022-11-20T05:45:15;96078.00;;;5.60;100.00
54994;BME280;40891;47.242;8.648;2022-11-20T05:47:40;96082.03;;;5.56;100.00
54994;BME280;40891;47.242;8.648;2022-11-20T05:50:06;96079.84;;;5.47;100.00
54994;BME280;40891;47.242;8.648;2022-11-20T05:52:31;96084.38;;;5.37;100.00
54994;BME280;40891;47.242;8.648;2022-11-20T05:54:56;96090.34;;;5.36;100.00
54994;BME280;40891;47.242;8.648;2022-11-20T05:57:22;96090.13;;;5.27;100.00
54994;BME280;40891;47.242;8.648;2022-11-20T05:59:47;96096.56;;;5.20;100.00
54994;BME280;40891;47.242;8.648;2022-11-20T06:02:12;96106.16;;;5.12;100.00
54994;BME280;40891;47.242;8.648;2022-11-20T06:04:38;96103.47;;;5.09;100.00
54994;BME280;40891;47.242;8.648;2022-11-20T06:07:04;96107.00;;;5.09;100.00
54994;BME280;40891;47.242;8.648;2022-11-20T06:09:30;96099.47;;;5.13;100.00
54994;BME280;40891;47.242;8.648;2022-11-20T06:11:55;96098.94;;;5.18;100.00
54994;BME280;40891;47.242;8.648;2022-11-20T06:14:21;96099.34;;;5.20;100.00
54994;BME280;40891;47.242;8.648;2022-11-20T06:16:46;96098.06;;;5.25;100.00
54994;BME280;40891;47.242;8.648;2022-11-20T06:19:11;96103.41;;;5.32;100.00
54994;BME280;40891;47.242;8.648;2022-11-20T06:21:36;96100.22;;;5.33;100.00
54994;BME280;40891;47.242;8.648;2022-11-20T06:24:02;96099.72;;;5.38;100.00
54994;BME280;40891;47.242;8.648;2022-11-20T06:26:27;96105.53;;;5.44;100.00
54994;BME280;40891;47.242;8.648;2022-11-20T06:28:53;96102.78;;;5.44;100.00
54994;BME280;40891;47.242;8.648;2022-11-20T06:31:20;96102.69;;;5.47;100.00
54994;BME280;40891;47.242;8.648;2022-11-20T06:33:47;96111.31;;;5.49;100.00
54994;BME280;40891;47.242;8.648;2022-11-20T06:36:15;96108.50;;;5.53;100.00
54994;BME280;40891;47.242;8.648;2022-11-20T06:38:41;96106.50;;;5.54;100.00
54994;BME280;40891;47.242;8.648;2022-11-20T06:41:11;96103.75;;;5.54;100.00
54994;BME280;40891;47.242;8.648;2022-11-20T06:43:36;96108.84;;;5.55;100.00
54994;BME280;40891;47.242;8.648;2022-11-20T06:46:02;96101.00;;;5.54;100.00
54994;BME280;40891;47.242;8.648;2022-11-20T06:48:28;96109.28;;;5.54;100.00
54994;BME280;40891;47.242;8.648;2022-11-20T06:50:54;96115.63;;;5.50;100.00
54994;BME280;40891;47.242;8.648;2022-11-20T06:53:19;96115.13;;;5.56;100.00
54994;BME280;40891;47.242;8.648;2022-11-20T06:55:46;96118.97;;;5.78;100.00
54994;BME280;40891;47.242;8.648;2022-11-20T06:58:12;96127.88;;;5.66;100.00
54994;BME280;40891;47.242;8.648;2022-11-20T07:00:38;96134.97;;;5.67;100.00
54994;BME280;40891;47.242;8.648;2022-11-20T07:03:08;96134.47;;;5.72;100.00
54994;BME280;40891;47.242;8.648;2022-11-20T07:05:34;96129.75;;;5.72;100.00
54994;BME280;40891;47.242;8.648;2022-11-20T07:08:00;96133.41;;;5.85;100.00
54994;BME280;40891;47.242;8.648;2022-11-20T07:10:26;96133.47;;;5.82;100.00
54994;BME280;40891;47.242;8.648;2022-11-20T07:12:52;96139.72;;;5.86;100.00
54994;BME280;40891;47.242;8.648;2022-11-20T07:15:19;96141.13;;;5.94;100.00
54994;BME280;40891;47.242;8.648;2022-11-20T07:17:44;96136.13;;;6.05;100.00
54994;BME280;40891;47.242;8.648;2022-11-20T07:20:10;96141.31;;;6.19;100.00
54994;BME280;40891;47.242;8.648;2022-11-20T07:22:36;96142.00;;;6.23;100.00
54994;BME280;40891;47.242;8.648;2022-11-20T07:25:01;96141.66;;;6.21;99.76
54994;BME280;40891;47.242;8.648;2022-11-20T07:27:27;96139.06;;;6.30;96.75
54994;BME280;40891;47.242;8.648;2022-11-20T07:29:53;96139.84;;;6.47;91.40
54994;BME280;40891;47.242;8.648;2022-11-20T07:32:18;96144.41;;;6.53;89.92
54994;BME280;40891;47.242;8.648;2022-11-20T07:34:43;96144.16;;;6.64;89.67
54994;BME280;40891;47.242;8.648;2022-11-20T07:37:09;96140.97;;;6.65;89.74
54994;BME280;40891;47.242;8.648;2022-11-20T07:39:34;96145.28;;;6.66;88.02
54994;BME280;40891;47.242;8.648;2022-11-20T07:41:59;96147.00;;;6.76;88.09
54994;BME280;40891;47.242;8.648;2022-11-20T07:44:25;96142.00;;;6.71;88.78
54994;BME280;40891;47.242;8.648;2022-11-20T07:46:50;96147.34;;;6.78;86.72
54994;BME280;40891;47.242;8.648;2022-11-20T07:49:15;96144.66;;;6.75;87.12
54994;BME280;40891;47.242;8.648;2022-11-20T07:51:40;96146.91;;;6.80;87.57
54994;BME280;40891;47.242;8.648;2022-11-20T07:54:06;96150.97;;;6.75;88.79
54994;BME280;40891;47.242;8.648;2022-11-20T07:56:31;96145.78;;;6.77;86.48
54994;BME280;40891;47.242;8.648;2022-11-20T07:58:59;96149.31;;;6.94;85.75
54994;BME280;40891;47.242;8.648;2022-11-20T08:01:25;96141.88;;;6.91;87.12
54994;BME280;40891;47.242;8.648;2022-11-20T08:03:50;96146.47;;;6.81;88.56
54994;BME280;40891;47.242;8.648;2022-11-20T08:06:15;96146.72;;;6.87;88.64
54994;BME280;40891;47.242;8.648;2022-11-20T08:08:41;96139.66;;;6.86;88.86
54994;BME280;40891;47.242;8.648;2022-11-20T08:11:06;96145.84;;;6.90;87.91
54994;BME280;40891;47.242;8.648;2022-11-20T08:13:50;96153.00;;;7.04;87.87
54994;BME280;40891;47.242;8.648;2022-11-20T08:16:34;96155.88;;;7.00;86.78
54994;BME280;40891;47.242;8.648;2022-11-20T08:18:59;96151.03;;;7.33;89.53
54994;BME280;40891;47.242;8.648;2022-11-20T08:21:24;96156.03;;;7.38;87.63
54994;BME280;40891;47.242;8.648;2022-11-20T08:23:50;96157.34;;;7.33;86.24
54994;BME280;40891;47.242;8.648;2022-11-20T08:26:15;96164.53;;;7.31;85.74
54994;BME280;40891;47.242;8.648;2022-11-20T08:28:41;96157.88;;;7.12;86.22
54994;BME280;40891;47.242;8.648;2022-11-20T08:31:06;96152.81;;;7.11;86.38
54994;BME280;40891;47.242;8.648;2022-11-20T08:33:31;96152.94;;;7.20;86.87
54994;BME280;40891;47.242;8.648;2022-11-20T08:36:02;96152.94;;;7.20;87.00
54994;BME280;40891;47.242;8.648;2022-11-20T08:38:28;96154.66;;;7.30;85.89
54994;BME280;40891;47.242;8.648;2022-11-20T08:41:01;96151.41;;;7.19;87.18
54994;BME280;40891;47.242;8.648;2022-11-20T08:43:45;96150.72;;;7.15;86.70
54994;BME280;40891;47.242;8.648;2022-11-20T08:46:10;96173.53;;;7.19;85.87
54994;BME280;40891;47.242;8.648;2022-11-20T08:48:36;96174.41;;;7.16;86.05
54994;BME280;40891;47.242;8.648;2022-11-20T08:51:01;96166.25;;;7.25;86.20
54994;BME280;40891;47.242;8.648;2022-11-20T08:53:27;96166.91;;;7.29;84.11
54994;BME280;40891;47.242;8.648;2022-11-20T08:55:53;96165.81;;;7.26;84.48
54994;BME280;40891;47.242;8.648;2022-11-20T08:58:18;96171.91;;;7.34;83.82
54994;BME280;40891;47.242;8.648;2022-11-20T09:00:44;96166.59;;;7.27;85.05
54994;BME280;40891;47.242;8.648;2022-11-20T09:03:10;96173.94;;;7.33;84.95
54994;BME280;40891;47.242;8.648;2022-11-20T09:05:35;96173.75;;;7.40;85.29
54994;BME280;40891;47.242;8.648;2022-11-20T09:08:00;96165.25;;;7.60;82.46
54994;BME280;40891;47.242;8.648;2022-11-20T09:10:26;96168.38;;;7.62;82.47
54994;BME280;40891;47.242;8.648;2022-11-20T09:12:52;96163.22;;;7.48;81.01
54994;BME280;40891;47.242;8.648;2022-11-20T09:15:20;96160.63;;;7.57;80.91
54994;BME280;40891;47.242;8.648;2022-11-20T09:17:57;96159.41;;;7.58;80.99
54994;BME280;40891;47.242;8.648;2022-11-20T09:20:23;96161.00;;;7.43;80.25
54994;BME280;40891;47.242;8.648;2022-11-20T09:22:48;96152.97;;;8.15;77.06
54994;BME280;40891;47.242;8.648;2022-11-20T09:25:14;96149.63;;;8.07;76.85
54994;BME280;40891;47.242;8.648;2022-11-20T09:27:39;96146.63;;;7.89;78.40
54994;BME280;40891;47.242;8.648;2022-11-20T09:30:07;96137.78;;;8.70;76.48
54994;BME280;40891;47.242;8.648;2022-11-20T09:32:32;96138.47;;;8.49;75.63
54994;BME280;40891;47.242;8.648;2022-11-20T09:34:57;96156.09;;;8.42;76.37
54994;BME280;40891;47.242;8.648;2022-11-20T09:37:23;96153.50;;;8.10;78.82
54994;BME280;40891;47.242;8.648;2022-11-20T09:39:48;96153.03;;;7.86;79.87
54994;BME280;40891;47.242;8.648;2022-11-20T09:50:49;96154.38;;;8.07;79.96
54994;BME280;40891;47.242;8.648;2022-11-20T09:56:09;96159.03;;;7.85;81.04
54994;BME280;40891;47.242;8.648;2022-11-20T09:58:44;96172.41;;;7.86;81.43
54994;BME280;40891;47.242;8.648;2022-11-20T10:01:37;96162.25;;;7.96;81.14
54994;BME280;40891;47.242;8.648;2022-11-20T10:04:08;96166.34;;;8.04;80.71
54994;BME280;40891;47.242;8.648;2022-11-20T10:06:56;96174.84;;;7.84;82.15
54994;BME280;40891;47.242;8.648;2022-11-20T10:09:32;96165.78;;;7.96;81.62
54994;BME280;40891;47.242;8.648;2022-11-20T10:12:17;96160.59;;;8.23;79.40
54994;BME280;40891;47.242;8.648;2022-11-20T10:14:57;96158.78;;;8.93;76.71
54994;BME280;40891;47.242;8.648;2022-11-20T10:23:10;96147.53;;;9.09;73.94
54994;BME280;40891;47.242;8.648;2022-11-20T10:31:08;96136.16;;;8.94;71.94
54994;BME280;40891;47.242;8.648;2022-11-20T10:33:39;96146.06;;;9.17;71.59
54994;BME280;40891;47.242;8.648;2022-11-20T10:36:17;96151.22;;;9.06;71.73
54994;BME280;40891;47.242;8.648;2022-11-20T10:38:55;96147.38;;;8.78;72.96
54994;BME280;40891;47.242;8.648;2022-11-20T10:41:32;96147.09;;;8.63;74.27
54994;BME280;40891;47.242;8.648;2022-11-20T10:44:08;96141.09;;;8.77;74.95
54994;BME280;40891;47.242;8.648;2022-11-20T10:46:53;96141.38;;;8.92;74.04
54994;BME280;40891;47.242;8.648;2022-11-20T10:49:19;96136.47;;;9.30;71.93
54994;BME280;40891;47.242;8.648;2022-11-20T10:52:12;96125.44;;;9.39;70.94
54994;BME280;40891;47.242;8.648;2022-11-20T10:54:56;96136.53;;;9.39;69.37
54994;BME280;40891;47.242;8.648;2022-11-20T10:57:41;96125.59;;;9.57;67.57
54994;BME280;40891;47.242;8.648;2022-11-20T11:00:13;96120.53;;;10.17;65.99
54994;BME280;40891;47.242;8.648;2022-11-20T11:02:52;96118.78;;;10.42;64.00
54994;BME280;40891;47.242;8.648;2022-11-20T11:05:50;96112.00;;;11.19;62.76
54994;BME280;40891;47.242;8.648;2022-11-20T11:08:19;96106.53;;;10.79;63.01
54994;BME280;40891;47.242;8.648;2022-11-20T11:10:52;96117.91;;;10.14;64.71
54994;BME280;40891;47.242;8.648;2022-11-20T11:13:29;96099.53;;;10.56;64.81
54994;BME280;40891;47.242;8.648;2022-11-20T11:15:55;96096.22;;;12.54;58.18
54994;BME280;40891;47.242;8.648;2022-11-20T11:18:32;96077.94;;;13.77;53.62
54994;BME280;40891;47.242;8.648;2022-11-20T11:21:00;96086.25;;;13.33;54.25
54994;BME280;40891;47.242;8.648;2022-11-20T11:23:31;96076.56;;;14.45;52.20
54994;BME280;40891;47.242;8.648;2022-11-20T11:25:59;96058.84;;;17.05;46.48
54994;BME280;40891;47.242;8.648;2022-11-20T11:28:25;96042.09;;;19.27;39.33
54994;BME280;40891;47.242;8.648;2022-11-20T11:30:52;96047.06;;;18.93;38.22
54994;BME280;40891;47.242;8.648;2022-11-20T11:33:25;96034.25;;;20.66;35.00
54994;BME280;40891;47.242;8.648;2022-11-20T11:35:56;96018.16;;;23.50;31.32
54994;BME280;40891;47.242;8.648;2022-11-20T11:38:56;96011.38;;;25.03;28.50
54994;BME280;40891;47.242;8.648;2022-11-20T11:41:20;96003.41;;;27.53;24.78
54994;BME280;40891;47.242;8.648;2022-11-20T11:44:21;96013.34;;;27.29;23.72
54994;BME280;40891;47.242;8.648;2022-11-20T11:47:24;96004.53;;;29.19;21.00
54994;BME280;40891;47.242;8.648;2022-11-20T11:50:13;96003.28;;;28.30;21.11
54994;BME280;40891;47.242;8.648;2022-11-20T11:53:16;96015.81;;;24.84;26.83
54994;BME280;40891;47.242;8.648;2022-11-20T11:55:43;95995.28;;;26.28;25.65
54994;BME280;40891;47.242;8.648;2022-11-20T11:59:01;95995.63;;;26.25;24.50
54994;BME280;40891;47.242;8.648;2022-11-20T12:06:47;96042.22;;;17.01;38.05
54994;BME280;40891;47.242;8.648;2022-11-20T12:09:15;96049.00;;;14.38;44.53
54994;BME280;40891;47.242;8.648;2022-11-20T12:17:09;96044.25;;;12.42;53.22
54994;BME280;40891;47.242;8.648;2022-11-20T12:19:35;96042.28;;;12.57;51.60
54994;BME280;40891;47.242;8.648;2022-11-20T12:22:26;96043.22;;;11.88;54.73
54994;BME280;40891;47.242;8.648;2022-11-20T12:25:09;96039.94;;;11.30;55.21
54994;BME280;40891;47.242;8.648;2022-11-20T12:30:49;96034.34;;;11.39;57.07
54994;BME280;40891;47.242;8.648;2022-11-20T12:33:35;96034.09;;;11.10;59.22
54994;BME280;40891;47.242;8.648;2022-11-20T12:36:12;96027.41;;;11.25;57.81
54994;BME280;40891;47.242;8.648;2022-11-20T12:39:01;96020.84;;;12.15;54.65
54994;BME280;40891;47.242;8.648;2022-11-20T12:41:56;96005.78;;;14.39;49.69
54994;BME280;40891;47.242;8.648;2022-11-20T12:45:10;95995.69;;;15.28;45.96
54994;BME280;40891;47.242;8.648;2022-11-20T12:53:23;96002.47;;;12.94;51.10
54994;BME280;40891;47.242;8.648;2022-11-20T13:01:54;96002.75;;;11.69;54.33
54994;BME280;40891;47.242;8.648;2022-11-20T13:07:12;95986.13;;;11.84;56.07
54994;BME280;40891;47.242;8.648;2022-11-20T13:09:43;95975.97;;;12.04;55.79
54994;BME280;40891;47.242;8.648;2022-11-20T13:12:29;95975.53;;;12.29;54.74
54994;BME280;40891;47.242;8.648;2022-11-20T13:15:50;95954.63;;;14.99;45.25
54994;BME280;40891;47.242;8.648;2022-11-20T13:18:11;95930.50;;;18.00;38.01
54994;BME280;40891;47.242;8.648;2022-11-20T13:20:44;95920.81;;;20.32;33.03
54994;BME280;40891;47.242;8.648;2022-11-20T13:23:11;95919.59;;;20.95;32.42
54994;BME280;40891;47.242;8.648;2022-11-20T13:25:38;95912.59;;;20.05;32.36
54994;BME280;40891;47.242;8.648;2022-11-20T13:30:37;95913.06;;;20.39;32.12
54994;BME280;40891;47.242;8.648;2022-11-20T13:33:43;95920.19;;;18.52;33.33
54994;BME280;40891;47.242;8.648;2022-11-20T13:36:23;95916.72;;;19.39;32.69
54994;BME280;40891;47.242;8.648;2022-11-20T13:38:51;95923.50;;;18.62;33.82
54994;BME280;40891;47.242;8.648;2022-11-20T13:41:43;95920.03;;;17.84;35.43
54994;BME280;40891;47.242;8.648;2022-11-20T13:44:28;95928.72;;;16.23;37.27
54994;BME280;40891;47.242;8.648;2022-11-20T13:46:54;95920.19;;;15.70;39.04
54994;BME280;40891;47.242;8.648;2022-11-20T13:49:30;95930.06;;;14.88;39.73
54994;BME280;40891;47.242;8.648;2022-11-20T13:54:58;95916.19;;;16.13;37.58
54994;BME280;40891;47.242;8.648;2022-11-20T14:00:24;95909.31;;;15.78;38.24
54994;BME280;40891;47.242;8.648;2022-11-20T14:05:24;95895.03;;;16.23;37.57
54994;BME280;40891;47.242;8.648;2022-11-20T14:07:51;95895.69;;;15.65;37.73
54994;BME280;40891;47.242;8.648;2022-11-20T14:10:27;95892.25;;;16.23;38.42
54994;BME280;40891;47.242;8.648;2022-11-20T14:12:53;95892.31;;;15.55;37.94
54994;BME280;40891;47.242;8.648;2022-11-20T14:15:30;95887.16;;;15.23;38.31
54994;BME280;40891;47.242;8.648;2022-11-20T14:17:57;95889.34;;;14.62;39.20
54994;BME280;40891;47.242;8.648;2022-11-20T14:20:28;95888.94;;;13.59;42.20
54994;BME280;40891;47.242;8.648;2022-11-20T14:22:56;95900.09;;;12.09;45.71
54994;BME280;40891;47.242;8.648;2022-11-20T14:25:23;95908.03;;;11.36;47.41
54994;BME280;40891;47.242;8.648;2022-11-20T14:27:54;95899.31;;;11.02;49.73